Time;durP1;ratioP1;P1;durP2;ratioP2;P2;SDS_P1;SDS_P2;PMS_P1;PMS_P2;Temp;Humidity;BMP_temperature;BMP_pressure;BME280_temperature;BME280_humidity;BME280_pressure;Samples;Min_cycle;Max_cycle;Signal;HPM_P1;HPM_P2
2024/04/14 00:02:00;;;;;;;7.80;3.97;;;19.00;99.90;;;;;;5436824;26;20234;-65
2024/04/14 00:04:26;;;;;;;5.13;3.60;;;19.00;99.90;;;;;;5436990;26;20264;-65
2024/04/14 00:06:52;;;;;;;5.50;4.10;;;18.90;99.90;;;;;;5439050;26;20250;-65
2024/04/14 00:09:17;;;;;;;4.10;3.07;;;18.90;99.90;;;;;;5394898;26;20317;-65
2024/04/14 00:11:43;;;;;;;4.27;2.93;;;18.80;99.90;;;;;;5437979;26;20254;-65
2024/04/14 00:14:08;;;;;;;4.20;2.60;;;18.70;99.90;;;;;;5434428;26;20294;-65
2024/04/14 00:16:34;;;;;;;4.40;2.93;;;18.70;99.90;;;;;;5436617;26;20321;-65
2024/04/14 00:19:00;;;;;;;2.77;2.03;;;18.70;99.90;;;;;;5437054;26;20267;-65
2024/04/14 00:21:26;;;;;;;3.63;1.63;;;18.60;99.90;;;;;;5436303;26;20250;-64
2024/04/14 00:23:51;;;;;;;1.97;1.60;;;18.50;99.40;;;;;;5436719;26;20233;-65
2024/04/14 00:26:17;;;;;;;2.93;1.80;;;18.50;98.30;;;;;;5436601;26;20268;-65
2024/04/14 00:28:44;;;;;;;1.70;1.43;;;18.40;97.10;;;;;;5436098;26;20233;-64
2024/04/14 00:31:10;;;;;;;1.87;1.40;;;18.30;96.40;;;;;;5437609;26;20268;-64
2024/04/14 00:33:35;;;;;;;2.07;1.70;;;18.20;95.80;;;;;;5437331;26;20510;-65
2024/04/14 00:36:02;;;;;;;1.70;1.60;;;18.20;97.60;;;;;;5434976;26;20930;-65
2024/04/14 00:38:28;;;;;;;1.70;1.43;;;18.10;96.40;;;;;;5436739;26;20286;-64
2024/04/14 00:40:53;;;;;;;1.50;1.40;;;18.10;96.80;;;;;;5436187;26;20817;-65
2024/04/14 00:43:20;;;;;;;2.13;1.47;;;18.10;97.00;;;;;;5436339;26;20314;-64
2024/04/14 00:45:46;;;;;;;2.80;1.40;;;18.00;97.50;;;;;;5436482;26;20270;-65
2024/04/14 00:48:13;;;;;;;2.00;1.60;;;18.00;96.80;;;;;;5435330;26;20504;-65
2024/04/14 00:50:40;;;;;;;1.70;1.60;;;18.00;97.50;;;;;;5439450;26;21000;-65
2024/04/14 00:53:07;;;;;;;2.00;1.50;;;17.90;97.20;;;;;;5436836;26;20936;-65
2024/04/14 00:55:34;;;;;;;2.17;1.20;;;17.90;97.80;;;;;;5435029;26;20568;-65
2024/04/14 00:58:01;;;;;;;2.30;1.70;;;17.80;97.40;;;;;;5436801;26;21375;-64
2024/04/14 01:00:28;;;;;;;3.27;1.70;;;17.80;97.50;;;;;;5434868;26;20469;-65
2024/04/14 01:02:55;;;;;;;2.90;1.60;;;17.80;97.50;;;;;;5437043;26;20947;-65
2024/04/14 01:05:24;;;;;;;2.03;1.60;;;17.80;97.10;;;;;;5436603;26;20459;-64
2024/04/14 01:07:52;;;;;;;2.13;1.47;;;17.70;97.70;;;;;;5437052;26;21111;-64
2024/04/14 01:10:18;;;;;;;2.70;1.40;;;17.60;97.20;;;;;;5433439;26;20509;-64
2024/04/14 01:12:44;;;;;;;1.83;1.60;;;17.60;97.60;;;;;;5435429;26;20468;-65
2024/04/14 01:15:10;;;;;;;2.80;1.73;;;17.60;97.30;;;;;;5439551;26;20471;-65
2024/04/14 01:17:36;;;;;;;6.07;2.20;;;17.60;97.90;;;;;;5436478;26;20459;-65
2024/04/14 01:20:02;;;;;;;5.40;2.00;;;17.50;97.90;;;;;;5434292;26;20456;-65
2024/04/14 01:22:27;;;;;;;2.20;1.90;;;17.50;98.50;;;;;;5436179;26;20874;-65
2024/04/14 01:25:03;;;;;;;6.00;2.17;;;17.50;98.20;;;;;;5435159;26;20338;-65
2024/04/14 01:27:29;;;;;;;3.80;2.13;;;17.40;98.50;;;;;;5437554;26;20276;-65
2024/04/14 01:29:54;;;;;;;3.40;2.00;;;17.40;98.90;;;;;;5435579;26;20972;-65
2024/04/14 01:32:20;;;;;;;4.50;2.83;;;17.40;99.10;;;;;;5434941;26;20260;-65
2024/04/14 01:34:46;;;;;;;4.03;2.40;;;17.30;99.10;;;;;;5435488;26;21347;-65
2024/04/14 01:37:12;;;;;;;4.20;2.20;;;17.30;99.60;;;;;;5432413;26;20242;-65
2024/04/14 01:39:37;;;;;;;2.57;2.07;;;17.30;99.80;;;;;;5392273;26;20293;-65
2024/04/14 01:42:03;;;;;;;2.73;2.33;;;17.20;99.90;;;;;;5434789;26;20280;-64
2024/04/14 01:44:29;;;;;;;5.33;2.23;;;17.20;99.90;;;;;;5435119;26;20748;-64
2024/04/14 01:46:55;;;;;;;3.20;2.10;;;17.10;99.90;;;;;;5432253;26;20515;-65
2024/04/14 01:49:20;;;;;;;3.00;2.03;;;17.10;99.90;;;;;;5436437;26;20515;-65
2024/04/14 01:51:46;;;;;;;2.80;2.10;;;17.00;99.90;;;;;;5432904;26;20230;-64
2024/04/14 01:54:12;;;;;;;3.93;2.07;;;17.00;99.90;;;;;;5433844;26;20688;-65
2024/04/14 01:56:38;;;;;;;2.90;1.93;;;17.00;99.90;;;;;;5392982;26;20273;-65
2024/04/14 01:59:04;;;;;;;7.93;2.23;;;16.90;99.90;;;;;;5436561;26;20246;-65
2024/04/14 02:01:30;;;;;;;3.20;2.00;;;16.90;99.90;;;;;;5429269;26;20460;-65
2024/04/14 02:03:56;;;;;;;4.57;2.23;;;16.90;99.90;;;;;;5435582;26;20241;-65
2024/04/14 02:06:21;;;;;;;3.17;1.83;;;16.80;99.90;;;;;;5391493;26;20334;-65
2024/04/14 02:08:51;;;;;;;5.63;2.43;;;16.70;99.90;;;;;;5435545;26;20314;-65
2024/04/14 02:11:17;;;;;;;3.17;2.13;;;16.70;99.90;;;;;;5390131;26;20237;-64
2024/04/14 02:13:42;;;;;;;5.70;1.93;;;16.60;99.90;;;;;;5433361;26;20503;-65
2024/04/14 02:16:08;;;;;;;3.37;2.40;;;16.70;99.90;;;;;;5434198;26;20819;-64
2024/04/14 02:18:34;;;;;;;3.30;2.30;;;16.60;99.90;;;;;;5433197;26;20226;-64
2024/04/14 02:20:59;;;;;;;6.83;2.77;;;16.60;99.90;;;;;;5434363;26;20497;-64
2024/04/14 02:23:26;;;;;;;4.20;2.10;;;16.60;99.90;;;;;;5434915;26;20282;-64
2024/04/14 02:25:59;;;;;;;4.53;2.00;;;16.70;99.90;;;;;;5430987;26;20315;-64
2024/04/14 02:28:25;;;;;;;3.67;2.37;;;16.60;99.90;;;;;;5431152;26;20522;-65
2024/04/14 02:30:51;;;;;;;3.83;2.00;;;16.60;99.90;;;;;;5435220;26;21206;-64
2024/04/14 02:33:17;;;;;;;5.57;2.37;;;16.60;99.90;;;;;;5433449;26;20591;-65
2024/04/14 02:36:02;;;;;;;6.27;2.13;;;16.60;99.90;;;;;;5431109;26;21190;-64
2024/04/14 02:38:29;;;;;;;6.30;2.60;;;16.60;99.90;;;;;;5434088;26;20468;-64
2024/04/14 02:41:04;;;;;;;7.50;2.23;;;16.60;99.90;;;;;;5432611;26;21000;-64
2024/04/14 02:43:33;;;;;;;5.53;2.37;;;16.60;99.90;;;;;;5428391;26;21071;-64
2024/04/14 02:45:58;;;;;;;5.53;2.10;;;16.60;99.90;;;;;;5432104;26;20464;-65
2024/04/14 02:48:25;;;;;;;10.40;3.00;;;16.60;99.90;;;;;;5433441;26;20513;-65
2024/04/14 02:50:51;;;;;;;7.00;2.50;;;16.60;99.90;;;;;;5432795;26;20791;-65
2024/04/14 02:53:16;;;;;;;4.60;2.10;;;16.50;99.90;;;;;;5432525;26;20562;-64
2024/04/14 02:55:42;;;;;;;3.67;2.63;;;16.40;99.90;;;;;;5431839;26;20330;-65
2024/04/14 02:58:10;;;;;;;3.30;2.40;;;16.40;99.90;;;;;;5430689;26;20511;-64
2024/04/14 03:00:36;;;;;;;4.43;2.80;;;16.40;99.90;;;;;;5432803;26;20455;-65
2024/04/14 03:03:02;;;;;;;4.17;2.63;;;16.40;99.90;;;;;;5436327;26;20449;-65
2024/04/14 03:05:28;;;;;;;6.10;2.47;;;16.30;99.90;;;;;;5436256;26;21030;-64
2024/04/14 03:07:54;;;;;;;6.50;2.67;;;16.30;99.90;;;;;;5434090;26;20237;-65
2024/04/14 03:10:20;;;;;;;4.63;2.37;;;16.30;99.90;;;;;;5434942;26;20805;-65
2024/04/14 03:12:46;;;;;;;3.97;2.63;;;16.20;99.90;;;;;;5404731;26;20286;-64
2024/04/14 03:15:12;;;;;;;5.27;3.03;;;16.20;99.90;;;;;;5436049;26;20460;-65
2024/04/14 03:17:38;;;;;;;8.17;2.80;;;16.20;99.90;;;;;;5434815;26;20786;-64
2024/04/14 03:20:05;;;;;;;6.33;3.23;;;16.20;99.90;;;;;;5436892;26;21207;-65
2024/04/14 03:22:32;;;;;;;8.93;2.90;;;16.30;99.90;;;;;;5437100;26;20513;-65
2024/04/14 03:24:57;;;;;;;4.73;2.83;;;16.20;99.90;;;;;;5437384;26;20474;-64
2024/04/14 03:27:23;;;;;;;6.17;3.00;;;16.20;99.90;;;;;;5435500;26;20467;-64
2024/04/14 03:29:49;;;;;;;5.70;3.30;;;16.20;99.90;;;;;;5436684;26;20249;-65
2024/04/14 03:32:15;;;;;;;6.13;2.60;;;16.20;99.90;;;;;;5435271;26;20241;-64
2024/04/14 03:34:42;;;;;;;6.33;2.93;;;16.20;99.90;;;;;;5436434;26;20475;-65
2024/04/14 03:37:08;;;;;;;6.73;2.90;;;16.20;99.90;;;;;;5433946;26;20500;-65
2024/04/14 03:39:34;;;;;;;7.83;3.43;;;16.20;99.90;;;;;;5435981;26;20471;-65
2024/04/14 03:42:00;;;;;;;8.13;3.20;;;16.10;99.90;;;;;;5436426;26;20526;-65
2024/04/14 03:44:29;;;;;;;7.47;2.70;;;16.20;99.90;;;;;;5435233;26;20561;-65
2024/04/14 03:46:55;;;;;;;5.90;2.93;;;16.10;99.90;;;;;;5435163;26;20809;-65
2024/04/14 03:49:20;;;;;;;9.93;3.67;;;16.10;99.90;;;;;;5434064;26;20475;-65
2024/04/14 03:51:46;;;;;;;4.53;2.87;;;16.10;99.90;;;;;;5436505;26;20389;-64
2024/04/14 03:54:12;;;;;;;5.83;3.00;;;16.00;99.90;;;;;;5434777;26;20281;-64
2024/04/14 03:56:37;;;;;;;7.33;3.53;;;16.00;99.90;;;;;;5436069;26;20238;-65
2024/04/14 03:59:03;;;;;;;7.53;3.93;;;16.00;99.90;;;;;;5432863;26;20374;-64
2024/04/14 04:01:29;;;;;;;6.53;3.63;;;16.00;99.90;;;;;;5434100;26;20235;-64
2024/04/14 04:03:55;;;;;;;7.20;3.97;;;16.00;99.90;;;;;;5436503;26;20272;-65
2024/04/14 04:06:21;;;;;;;9.77;3.57;;;16.00;99.90;;;;;;5434518;26;20554;-65
2024/04/14 04:08:46;;;;;;;9.37;3.97;;;16.00;99.90;;;;;;5435552;26;20763;-64
2024/04/14 04:11:12;;;;;;;7.27;4.07;;;15.90;99.90;;;;;;5436058;26;20261;-64
2024/04/14 04:13:38;;;;;;;8.47;4.63;;;15.90;99.90;;;;;;5439399;26;20956;-64
2024/04/14 04:16:05;;;;;;;9.90;3.87;;;15.90;99.90;;;;;;5439220;26;20238;-64
2024/04/14 04:18:32;;;;;;;6.10;3.80;;;15.90;99.90;;;;;;5437948;26;20261;-64
2024/04/14 04:21:01;;;;;;;7.70;3.93;;;15.80;99.90;;;;;;5439839;26;20459;-64
2024/04/14 04:23:27;;;;;;;11.50;4.30;;;15.80;99.90;;;;;;5438704;26;20558;-64
2024/04/14 04:25:57;;;;;;;6.90;3.30;;;15.80;99.90;;;;;;5439326;26;20499;-64
2024/04/14 04:28:23;;;;;;;7.77;4.33;;;15.80;99.90;;;;;;5403869;26;20857;-65
2024/04/14 04:30:49;;;;;;;10.30;4.13;;;15.80;99.90;;;;;;5436391;26;20475;-64
2024/04/14 04:33:15;;;;;;;5.73;3.87;;;15.70;99.90;;;;;;5437459;26;20770;-64
2024/04/14 04:35:51;;;;;;;7.57;3.57;;;15.70;99.90;;;;;;5438753;26;20467;-64
2024/04/14 04:38:17;;;;;;;5.20;3.17;;;15.70;99.90;;;;;;5431722;26;20237;-64
2024/04/14 04:40:42;;;;;;;6.80;3.93;;;15.70;99.90;;;;;;5437921;26;20504;-65
2024/04/14 04:43:08;;;;;;;8.10;3.90;;;15.80;99.90;;;;;;5438033;26;20234;-64
2024/04/14 04:45:34;;;;;;;6.93;3.67;;;15.80;99.90;;;;;;5437592;26;20230;-64
2024/04/14 04:48:00;;;;;;;7.03;3.60;;;15.70;99.90;;;;;;5437708;26;20257;-64
2024/04/14 04:50:26;;;;;;;6.87;3.33;;;15.70;99.90;;;;;;5436833;26;20459;-64
2024/04/14 04:52:51;;;;;;;7.93;3.87;;;15.60;99.90;;;;;;5438142;26;20230;-64
2024/04/14 04:55:17;;;;;;;7.93;4.47;;;15.60;99.90;;;;;;5438228;26;20948;-64
2024/04/14 04:57:42;;;;;;;8.30;4.13;;;15.60;99.90;;;;;;5440447;26;20238;-65
2024/04/14 05:00:09;;;;;;;9.90;4.10;;;15.60;99.90;;;;;;5439813;26;20226;-64
2024/04/14 05:02:34;;;;;;;9.97;4.17;;;15.60;99.90;;;;;;5409821;26;20712;-64
2024/04/14 05:05:00;;;;;;;9.57;3.93;;;15.60;99.90;;;;;;5440991;26;20594;-64
2024/04/14 05:07:25;;;;;;;6.80;4.13;;;15.50;99.90;;;;;;5439957;26;20260;-64
2024/04/14 05:09:52;;;;;;;11.03;4.10;;;15.50;99.90;;;;;;5441616;26;20230;-65
2024/04/14 05:12:18;;;;;;;5.53;3.70;;;15.50;99.90;;;;;;5436355;26;20952;-65
2024/04/14 05:14:44;;;;;;;8.67;4.20;;;15.50;99.90;;;;;;5435681;26;20577;-64
2024/04/14 05:17:09;;;;;;;13.10;4.87;;;15.50;99.90;;;;;;5439295;26;20734;-65
2024/04/14 05:19:35;;;;;;;10.50;4.10;;;15.50;99.90;;;;;;5439409;26;20634;-64
2024/04/14 05:22:01;;;;;;;10.93;4.27;;;15.50;99.90;;;;;;5438378;26;20249;-64
2024/04/14 05:24:26;;;;;;;9.47;4.37;;;15.50;99.90;;;;;;5439488;26;20285;-64
2024/04/14 05:26:52;;;;;;;7.20;4.17;;;15.60;99.90;;;;;;5440188;26;20238;-64
2024/04/14 05:29:18;;;;;;;8.87;4.60;;;15.60;99.90;;;;;;5439176;26;20234;-64
2024/04/14 05:31:43;;;;;;;7.40;4.30;;;15.60;99.90;;;;;;5440031;26;20645;-64
2024/04/14 05:34:09;;;;;;;8.43;4.20;;;15.50;99.90;;;;;;5439046;26;20350;-65
2024/04/14 05:36:35;;;;;;;7.37;4.40;;;15.50;99.90;;;;;;5440283;26;20237;-64
2024/04/14 05:39:00;;;;;;;8.77;4.07;;;15.50;99.90;;;;;;5438683;26;20295;-64
2024/04/14 05:41:26;;;;;;;9.33;4.80;;;15.50;99.90;;;;;;5440035;26;20238;-65
2024/04/14 05:43:51;;;;;;;10.47;4.47;;;15.50;99.90;;;;;;5440509;26;20238;-64
2024/04/14 05:46:17;;;;;;;5.77;4.20;;;15.50;99.90;;;;;;5439515;26;20571;-64
2024/04/14 05:48:43;;;;;;;8.67;4.80;;;15.40;99.90;;;;;;5439957;26;20326;-64
2024/04/14 05:51:08;;;;;;;7.73;4.93;;;15.40;99.90;;;;;;5439367;26;20229;-64
2024/04/14 05:53:34;;;;;;;9.10;4.43;;;15.20;99.90;;;;;;5439214;26;20230;-64
2024/04/14 05:56:00;;;;;;;9.80;4.57;;;15.20;99.90;;;;;;5437629;26;20237;-65
2024/04/14 05:58:25;;;;;;;8.80;3.90;;;15.30;99.90;;;;;;5438699;26;20226;-65
2024/04/14 06:00:51;;;;;;;13.70;4.70;;;15.30;99.90;;;;;;5438277;26;20234;-64
2024/04/14 06:03:17;;;;;;;8.60;4.87;;;15.30;99.90;;;;;;5439154;26;20647;-64
2024/04/14 06:05:43;;;;;;;5.47;3.93;;;15.40;99.90;;;;;;5438886;26;20268;-64
2024/04/14 06:08:08;;;;;;;11.30;4.40;;;15.50;99.90;;;;;;5439759;26;20233;-64
2024/04/14 06:10:34;;;;;;;7.00;4.13;;;15.50;99.90;;;;;;5439210;26;20234;-64
2024/04/14 06:13:00;;;;;;;6.60;4.13;;;15.60;99.90;;;;;;5438112;26;20464;-64
2024/04/14 06:15:27;;;;;;;7.80;4.53;;;15.60;99.90;;;;;;5394688;26;20265;-64
2024/04/14 06:17:52;;;;;;;7.17;4.77;;;15.60;99.90;;;;;;5438314;26;20226;-64
2024/04/14 06:20:18;;;;;;;9.80;4.50;;;15.60;99.90;;;;;;5437739;26;20547;-65
2024/04/14 06:22:44;;;;;;;10.03;4.93;;;15.60;99.90;;;;;;5438862;26;20238;-64
2024/04/14 06:25:09;;;;;;;15.17;4.80;;;15.50;99.90;;;;;;5437018;26;20649;-64
2024/04/14 06:27:35;;;;;;;9.70;5.47;;;15.50;99.90;;;;;;5437147;26;20226;-64
2024/04/14 06:30:01;;;;;;;6.47;4.83;;;15.60;99.90;;;;;;5436461;26;20233;-64
2024/04/14 06:32:26;;;;;;;8.17;4.27;;;15.60;99.90;;;;;;5438342;26;20728;-64
2024/04/14 06:34:52;;;;;;;7.53;4.50;;;15.70;99.90;;;;;;5436513;26;20331;-64
2024/04/14 06:37:19;;;;;;;8.57;4.17;;;15.80;99.90;;;;;;5438641;26;21127;-64
2024/04/14 06:39:44;;;;;;;8.83;4.00;;;15.70;99.90;;;;;;5437865;26;20512;-64
2024/04/14 06:42:10;;;;;;;6.90;4.10;;;15.70;99.90;;;;;;5437209;26;20459;-64
2024/04/14 06:44:36;;;;;;;8.47;4.37;;;15.80;99.90;;;;;;5438661;26;20249;-64
2024/04/14 06:47:02;;;;;;;6.00;3.60;;;15.80;99.90;;;;;;5436236;26;20312;-64
2024/04/14 06:49:28;;;;;;;6.67;4.07;;;15.90;99.90;;;;;;5437361;26;20233;-64
2024/04/14 06:51:54;;;;;;;9.33;4.10;;;16.00;99.90;;;;;;5438328;26;20510;-64
2024/04/14 06:54:19;;;;;;;11.60;4.83;;;16.00;99.90;;;;;;5437850;26;20515;-64
2024/04/14 06:56:45;;;;;;;10.23;4.60;;;16.00;99.90;;;;;;5436293;26;20226;-64
2024/04/14 06:59:11;;;;;;;9.57;4.60;;;16.00;99.90;;;;;;5437058;26;20280;-64
2024/04/14 07:01:36;;;;;;;9.87;4.43;;;15.90;99.90;;;;;;5439094;26;20289;-65
2024/04/14 07:04:02;;;;;;;9.70;4.50;;;15.90;99.90;;;;;;5435643;26;20272;-64
2024/04/14 07:06:28;;;;;;;9.33;4.70;;;16.00;99.90;;;;;;5437566;26;20226;-64
2024/04/14 07:08:53;;;;;;;8.37;4.33;;;16.00;99.90;;;;;;5435362;26;20230;-64
2024/04/14 07:11:19;;;;;;;7.57;4.50;;;16.00;99.90;;;;;;5439010;26;20561;-64
2024/04/14 07:13:45;;;;;;;5.23;4.50;;;16.10;99.90;;;;;;5435342;26;20238;-64
2024/04/14 07:16:10;;;;;;;7.33;4.90;;;16.10;99.90;;;;;;5433892;26;20233;-64
2024/04/14 07:18:36;;;;;;;9.90;4.60;;;16.10;99.90;;;;;;5437521;26;20248;-65
2024/04/14 07:21:04;;;;;;;7.97;5.47;;;16.10;99.90;;;;;;5434354;26;20382;-64
2024/04/14 07:23:31;;;;;;;7.63;4.57;;;16.20;99.90;;;;;;5437284;26;20250;-64
2024/04/14 07:25:57;;;;;;;7.13;5.00;;;16.20;99.90;;;;;;5431530;26;20467;-64
2024/04/14 07:28:23;;;;;;;9.00;5.00;;;16.30;99.90;;;;;;5436255;26;20515;-64
2024/04/14 07:30:49;;;;;;;7.40;4.53;;;16.30;99.90;;;;;;5434807;26;20514;-65
2024/04/14 07:33:17;;;;;;;8.37;4.40;;;16.30;99.90;;;;;;5437056;26;20334;-64
2024/04/14 07:35:44;;;;;;;10.87;4.67;;;16.30;99.90;;;;;;5433806;26;20234;-64
2024/04/14 07:38:09;;;;;;;8.47;4.77;;;16.40;99.90;;;;;;5436539;26;20471;-64
2024/04/14 07:40:35;;;;;;;12.33;5.27;;;16.40;99.90;;;;;;5439055;26;20467;-64
2024/04/14 07:43:01;;;;;;;8.77;5.47;;;16.40;99.90;;;;;;5431923;26;20301;-64
2024/04/14 07:45:27;;;;;;;9.30;5.07;;;16.40;99.90;;;;;;5428621;26;20739;-64
2024/04/14 07:47:52;;;;;;;10.00;4.90;;;16.40;99.90;;;;;;5437282;26;20348;-65
2024/04/14 07:50:18;;;;;;;9.43;4.90;;;16.50;99.90;;;;;;5430382;26;20278;-64
2024/04/14 07:52:44;;;;;;;8.77;5.17;;;16.60;99.90;;;;;;5425657;26;20238;-64
2024/04/14 07:55:10;;;;;;;8.90;5.70;;;16.70;99.90;;;;;;5423727;26;20261;-65
2024/04/14 07:57:35;;;;;;;6.10;4.80;;;16.70;99.90;;;;;;5430347;26;20234;-65
2024/04/14 08:00:01;;;;;;;10.87;4.43;;;16.70;99.90;;;;;;5426025;26;20573;-65
2024/04/14 08:02:27;;;;;;;7.13;4.70;;;16.60;99.90;;;;;;5433122;26;20229;-66
2024/04/14 08:04:53;;;;;;;6.97;4.77;;;16.70;99.90;;;;;;5432824;26;20501;-66
2024/04/14 08:07:19;;;;;;;11.20;5.70;;;16.70;99.90;;;;;;5436340;26;20257;-66
2024/04/14 08:09:45;;;;;;;9.93;5.60;;;16.70;99.90;;;;;;5435160;26;20459;-66
2024/04/14 08:12:10;;;;;;;9.13;5.93;;;16.70;99.90;;;;;;5437032;26;20230;-66
2024/04/14 08:14:36;;;;;;;7.43;4.60;;;16.60;99.90;;;;;;5429093;26;20723;-65
2024/04/14 08:17:02;;;;;;;8.93;4.67;;;16.60;99.90;;;;;;5435589;26;20585;-65
2024/04/14 08:19:27;;;;;;;9.53;5.80;;;16.60;99.90;;;;;;5435714;26;21104;-65
2024/04/14 08:21:53;;;;;;;10.47;6.17;;;16.60;99.90;;;;;;5437771;26;20237;-65
2024/04/14 08:24:19;;;;;;;13.07;6.33;;;16.70;99.90;;;;;;5435826;26;20296;-65
2024/04/14 08:26:44;;;;;;;7.50;6.20;;;16.80;99.90;;;;;;5409450;26;20704;-65
2024/04/14 08:29:10;;;;;;;8.73;6.13;;;16.80;99.90;;;;;;5425996;26;20246;-65
2024/04/14 08:31:36;;;;;;;9.97;6.47;;;16.90;99.90;;;;;;5429856;26;20305;-65
2024/04/14 08:34:01;;;;;;;10.47;5.90;;;16.90;99.90;;;;;;5430381;26;20318;-65
2024/04/14 08:36:27;;;;;;;11.17;5.77;;;16.80;99.90;;;;;;5431621;26;20238;-65
2024/04/14 08:38:53;;;;;;;7.37;4.60;;;16.80;99.90;;;;;;5432582;26;20328;-65
2024/04/14 08:41:23;;;;;;;9.30;4.77;;;16.80;99.90;;;;;;5430441;26;20251;-65
2024/04/14 08:43:50;;;;;;;7.10;4.63;;;16.80;99.90;;;;;;5432535;26;20256;-65
2024/04/14 08:46:17;;;;;;;10.17;5.03;;;16.90;99.90;;;;;;5426710;26;20469;-65
2024/04/14 08:48:47;;;;;;;6.07;3.90;;;16.90;99.90;;;;;;5425633;26;20534;-65
2024/04/14 08:51:16;;;;;;;6.37;4.90;;;17.00;99.90;;;;;;5430490;26;20451;-65
2024/04/14 08:53:43;;;;;;;8.23;5.00;;;17.10;99.90;;;;;;5434183;26;20475;-65
2024/04/14 08:56:10;;;;;;;7.03;5.30;;;17.10;99.90;;;;;;5434069;26;20443;-65
2024/04/14 08:58:38;;;;;;;4.87;3.67;;;17.10;99.90;;;;;;5430487;26;20498;-65
2024/04/14 09:01:08;;;;;;;5.87;2.90;;;17.20;99.90;;;;;;5432060;26;20989;-65
2024/04/14 09:03:34;;;;;;;6.83;3.30;;;17.10;99.30;;;;;;5432668;26;20510;-65
2024/04/14 09:06:05;;;;;;;7.83;3.23;;;17.00;99.20;;;;;;5434136;26;20437;-65
2024/04/14 09:08:31;;;;;;;6.73;2.60;;;16.90;99.90;;;;;;5429084;26;20770;-65
2024/04/14 09:10:57;;;;;;;5.67;2.80;;;16.80;98.90;;;;;;5427598;26;20804;-65
2024/04/14 09:13:27;;;;;;;6.23;2.87;;;16.80;99.90;;;;;;5432851;26;20511;-65
2024/04/14 09:15:55;;;;;;;4.40;2.37;;;16.80;99.90;;;;;;5433590;26;20237;-65
2024/04/14 09:18:20;;;;;;;6.07;2.90;;;16.80;99.30;;;;;;5423303;26;20454;-65
2024/04/14 09:20:46;;;;;;;11.20;3.63;;;16.90;99.70;;;;;;5430406;26;20447;-65
2024/04/14 09:23:12;;;;;;;5.87;2.90;;;17.00;99.90;;;;;;5430162;26;20475;-65
2024/04/14 09:25:37;;;;;;;5.37;3.27;;;17.10;99.90;;;;;;5434903;26;20351;-66
2024/04/14 09:28:10;;;;;;;5.30;2.87;;;17.10;99.90;;;;;;5390124;26;20230;-65
2024/04/14 09:30:36;;;;;;;4.20;2.60;;;17.10;99.50;;;;;;5424960;26;20238;-65
2024/04/14 09:33:03;;;;;;;3.43;2.20;;;17.10;99.80;;;;;;5432440;26;20513;-65
2024/04/14 09:35:29;;;;;;;2.87;2.00;;;17.20;99.90;;;;;;5431864;26;20468;-65
2024/04/14 09:37:55;;;;;;;3.80;2.27;;;17.30;99.90;;;;;;5430716;26;20577;-65
2024/04/14 09:40:22;;;;;;;3.20;1.77;;;17.30;99.80;;;;;;5433314;26;20840;-65
2024/04/14 09:42:50;;;;;;;4.03;2.07;;;17.40;99.90;;;;;;5431546;26;20460;-65
2024/04/14 09:45:16;;;;;;;5.50;2.53;;;17.50;99.80;;;;;;5433398;26;20443;-65
2024/04/14 09:47:43;;;;;;;5.13;2.80;;;17.40;99.00;;;;;;5426028;26;20519;-65
2024/04/14 09:50:09;;;;;;;3.70;2.00;;;17.40;99.90;;;;;;5431653;26;20237;-65
2024/04/14 09:52:36;;;;;;;6.23;3.10;;;17.40;99.90;;;;;;5433986;26;20515;-65
2024/04/14 09:55:04;;;;;;;7.13;3.43;;;17.30;99.50;;;;;;5429366;26;21243;-65
2024/04/14 09:57:30;;;;;;;4.97;2.80;;;17.20;99.90;;;;;;5432211;26;20459;-65
2024/04/14 09:59:56;;;;;;;4.93;2.40;;;17.20;99.90;;;;;;5430073;26;20451;-65
2024/04/14 10:02:29;;;;;;;4.40;2.50;;;17.10;99.90;;;;;;5432946;26;20455;-65
2024/04/14 10:04:57;;;;;;;5.30;3.10;;;17.20;99.90;;;;;;5430677;26;20557;-65
2024/04/14 10:07:23;;;;;;;5.13;2.80;;;17.30;99.90;;;;;;5430582;26;20452;-65
2024/04/14 10:09:49;;;;;;;5.30;3.13;;;17.50;99.90;;;;;;5424954;26;20468;-65
2024/04/14 10:12:21;;;;;;;5.47;3.13;;;17.70;99.90;;;;;;5429001;26;20471;-65
2024/04/14 10:14:48;;;;;;;6.27;2.83;;;18.00;99.90;;;;;;5418734;26;20504;-66
2024/04/14 10:17:20;;;;;;;4.87;3.83;;;18.30;99.40;;;;;;5378109;26;21076;-65
2024/04/14 10:19:56;;;;;;;5.10;2.93;;;18.50;98.50;;;;;;5424830;26;20519;-65
2024/04/14 10:22:29;;;;;;;5.77;3.13;;;18.60;98.20;;;;;;5427687;26;20596;-65
2024/04/14 10:24:55;;;;;;;8.67;3.53;;;18.80;98.40;;;;;;5423685;26;21008;-65
2024/04/14 10:27:23;;;;;;;5.57;3.13;;;18.70;97.00;;;;;;5396018;26;20495;-65
2024/04/14 10:29:59;;;;;;;5.60;2.83;;;18.70;96.30;;;;;;5422115;26;21071;-65
2024/04/14 10:32:25;;;;;;;2.93;2.37;;;18.60;96.80;;;;;;5426176;26;21250;-65
2024/04/14 10:34:51;;;;;;;6.07;2.80;;;18.60;97.10;;;;;;5419292;26;20499;-65
2024/04/14 10:37:27;;;;;;;5.60;2.70;;;18.50;97.10;;;;;;5427746;26;20242;-65
2024/04/14 10:39:55;;;;;;;4.03;2.40;;;18.60;97.00;;;;;;5426668;26;20519;-65
2024/04/14 10:42:23;;;;;;;3.40;2.10;;;18.60;97.40;;;;;;5431590;26;20527;-65
2024/04/14 10:44:49;;;;;;;3.17;2.10;;;18.70;96.90;;;;;;5430786;26;20451;-65
2024/04/14 10:47:19;;;;;;;3.67;1.87;;;18.70;97.00;;;;;;5429367;26;20889;-65
2024/04/14 10:49:49;;;;;;;8.03;3.87;;;18.90;96.90;;;;;;5427233;26;20447;-65
2024/04/14 10:52:18;;;;;;;6.37;4.43;;;19.00;96.10;;;;;;5424118;26;20783;-65
2024/04/14 10:54:44;;;;;;;5.60;4.67;;;19.10;97.40;;;;;;5425696;26;20509;-65
2024/04/14 10:57:11;;;;;;;9.27;5.30;;;19.10;98.00;;;;;;5427143;26;20465;-65
2024/04/14 10:59:37;;;;;;;7.30;3.27;;;19.10;97.90;;;;;;5430475;26;20842;-65
2024/04/14 11:02:04;;;;;;;5.90;3.60;;;18.90;96.80;;;;;;5433174;26;20458;-66
2024/04/14 11:04:31;;;;;;;5.57;4.30;;;18.80;96.80;;;;;;5433693;26;20859;-66
2024/04/14 11:06:58;;;;;;;7.20;4.07;;;18.70;96.90;;;;;;5426216;26;20474;-66
2024/04/14 11:09:25;;;;;;;5.10;3.83;;;18.60;97.30;;;;;;5418853;26;21107;-65
2024/04/14 11:11:51;;;;;;;6.60;2.90;;;18.80;97.90;;;;;;5430917;26;20474;-66
2024/04/14 11:14:21;;;;;;;3.37;1.90;;;19.00;97.40;;;;;;5436307;26;20537;-63
2024/04/14 11:16:48;;;;;;;3.57;2.03;;;19.10;95.10;;;;;;5423425;26;20510;-64
2024/04/14 11:19:13;;;;;;;3.90;2.20;;;19.00;93.20;;;;;;5388713;26;20444;-65
2024/04/14 11:21:39;;;;;;;4.33;2.30;;;19.00;94.30;;;;;;5428448;26;20570;-65
2024/04/14 11:24:09;;;;;;;6.63;2.70;;;18.90;94.30;;;;;;5437647;26;20310;-65
2024/04/14 11:26:35;;;;;;;4.40;2.93;;;18.90;94.10;;;;;;5435706;26;20271;-65
2024/04/14 11:29:01;;;;;;;3.53;2.10;;;19.00;95.00;;;;;;5439891;26;20451;-65
2024/04/14 11:31:27;;;;;;;5.30;2.50;;;18.90;95.10;;;;;;5435280;26;20230;-65
2024/04/14 11:33:54;;;;;;;5.00;2.13;;;19.00;96.00;;;;;;5436040;26;20526;-65
2024/04/14 11:36:20;;;;;;;4.93;3.33;;;19.00;94.60;;;;;;5437664;26;20455;-65
2024/04/14 11:38:49;;;;;;;4.60;2.60;;;18.90;94.10;;;;;;5435644;26;20508;-65
2024/04/14 11:41:15;;;;;;;6.73;2.40;;;18.80;94.70;;;;;;5431540;26;20270;-65
2024/04/14 11:43:41;;;;;;;8.57;2.90;;;18.80;95.00;;;;;;5437951;26;21286;-65
2024/04/14 11:46:07;;;;;;;4.17;2.40;;;18.90;95.00;;;;;;5435859;26;20317;-65
2024/04/14 11:48:32;;;;;;;5.27;2.07;;;18.90;94.80;;;;;;5436444;26;20460;-65
2024/04/14 11:50:58;;;;;;;3.47;2.00;;;18.90;94.10;;;;;;5435782;26;20267;-65
2024/04/14 11:53:24;;;;;;;3.20;1.80;;;18.90;94.30;;;;;;5441065;26;20238;-65
2024/04/14 11:55:50;;;;;;;6.63;2.93;;;19.00;94.20;;;;;;5430769;26;20330;-65
2024/04/14 11:58:18;;;;;;;4.67;2.30;;;19.00;93.80;;;;;;5439098;26;20251;-65
2024/04/14 12:00:44;;;;;;;4.03;2.43;;;19.00;92.90;;;;;;5432854;26;20285;-65
2024/04/14 12:03:10;;;;;;;6.30;2.20;;;19.00;93.30;;;;;;5438466;26;20940;-65
2024/04/14 12:05:36;;;;;;;3.50;1.90;;;18.90;92.50;;;;;;5433289;26;20234;-65
2024/04/14 12:08:02;;;;;;;5.10;1.73;;;18.80;92.70;;;;;;5436730;26;20475;-65
2024/04/14 12:10:27;;;;;;;5.60;2.00;;;18.80;92.90;;;;;;5429877;26;20230;-65
2024/04/14 12:12:53;;;;;;;7.77;1.80;;;19.00;93.30;;;;;;5435398;26;20778;-64
2024/04/14 12:15:18;;;;;;;3.90;1.90;;;19.20;93.50;;;;;;5436455;26;20230;-65
2024/04/14 12:17:44;;;;;;;3.60;2.10;;;19.30;91.10;;;;;;5436271;26;21125;-65
2024/04/14 12:20:10;;;;;;;4.10;1.73;;;19.40;92.30;;;;;;5438063;26;20242;-65
2024/04/14 12:22:36;;;;;;;5.10;1.70;;;19.40;91.00;;;;;;5435869;26;20778;-64
2024/04/14 12:25:02;;;;;;;4.80;1.40;;;19.30;90.70;;;;;;5433788;26;20238;-65
2024/04/14 12:27:28;;;;;;;4.20;1.20;;;19.20;90.20;;;;;;5433879;26;21117;-64
2024/04/14 12:29:53;;;;;;;5.33;1.60;;;19.20;90.40;;;;;;5432849;26;20466;-65
2024/04/14 12:32:19;;;;;;;3.33;1.40;;;19.10;90.50;;;;;;5436103;26;21057;-64
2024/04/14 12:34:45;;;;;;;3.23;1.63;;;19.20;90.10;;;;;;5430312;26;20583;-65
2024/04/14 12:37:10;;;;;;;2.57;1.10;;;19.10;86.60;;;;;;5437204;26;20260;-65
2024/04/14 12:39:38;;;;;;;4.07;1.60;;;19.00;89.30;;;;;;5436534;26;20272;-65
2024/04/14 12:42:05;;;;;;;6.10;1.53;;;18.90;88.00;;;;;;5435327;26;20444;-65